sensor_id;sensor_type;location;lat;lon;timestamp;P1;durP1;ratioP1;P2;durP2;ratioP2
44048;SDS011;29717;47.028;15.470;2022-12-16T00:00:27;90.33;;;59.03;;
44048;SDS011;29717;47.028;15.470;2022-12-16T00:02:54;87.50;;;59.73;;
44048;SDS011;29717;47.028;15.470;2022-12-16T00:05:22;93.00;;;59.53;;
44048;SDS011;29717;47.028;15.470;2022-12-16T00:07:49;87.97;;;57.33;;
44048;SDS011;29717;47.028;15.470;2022-12-16T00:10:16;87.03;;;56.20;;
44048;SDS011;29717;47.028;15.470;2022-12-16T00:12:43;84.60;;;54.87;;
44048;SDS011;29717;47.028;15.470;2022-12-16T00:15:10;86.33;;;54.87;;
44048;SDS011;29717;47.028;15.470;2022-12-16T00:17:36;86.53;;;56.97;;
44048;SDS011;29717;47.028;15.470;2022-12-16T00:20:04;84.17;;;56.63;;
44048;SDS011;29717;47.028;15.470;2022-12-16T00:22:33;88.60;;;56.17;;
44048;SDS011;29717;47.028;15.470;2022-12-16T00:24:59;83.10;;;56.03;;
44048;SDS011;29717;47.028;15.470;2022-12-16T00:27:26;84.83;;;54.93;;
44048;SDS011;29717;47.028;15.470;2022-12-16T00:29:53;81.90;;;55.70;;
44048;SDS011;29717;47.028;15.470;2022-12-16T00:32:20;81.80;;;55.00;;
44048;SDS011;29717;47.028;15.470;2022-12-16T00:34:47;82.93;;;54.63;;
44048;SDS011;29717;47.028;15.470;2022-12-16T00:37:14;84.47;;;54.23;;
44048;SDS011;29717;47.028;15.470;2022-12-16T00:39:42;81.70;;;54.50;;
44048;SDS011;29717;47.028;15.470;2022-12-16T00:42:09;86.53;;;55.43;;
44048;SDS011;29717;47.028;15.470;2022-12-16T00:44:35;87.17;;;56.37;;
44048;SDS011;29717;47.028;15.470;2022-12-16T00:47:02;82.47;;;55.77;;
44048;SDS011;29717;47.028;15.470;2022-12-16T00:49:29;83.10;;;54.77;;
44048;SDS011;29717;47.028;15.470;2022-12-16T00:51:56;86.63;;;54.57;;
44048;SDS011;29717;47.028;15.470;2022-12-16T00:54:23;88.50;;;56.57;;
44048;SDS011;29717;47.028;15.470;2022-12-16T00:56:51;83.80;;;56.80;;
44048;SDS011;29717;47.028;15.470;2022-12-16T00:59:19;91.80;;;57.23;;
44048;SDS011;29717;47.028;15.470;2022-12-16T01:01:45;86.70;;;57.60;;
44048;SDS011;29717;47.028;15.470;2022-12-16T01:04:13;84.57;;;57.73;;
44048;SDS011;29717;47.028;15.470;2022-12-16T01:06:40;89.90;;;58.00;;
44048;SDS011;29717;47.028;15.470;2022-12-16T01:09:07;86.07;;;56.47;;
44048;SDS011;29717;47.028;15.470;2022-12-16T01:11:34;80.33;;;55.67;;
44048;SDS011;29717;47.028;15.470;2022-12-16T01:14:03;87.20;;;56.17;;
44048;SDS011;29717;47.028;15.470;2022-12-16T01:16:29;84.13;;;54.97;;
44048;SDS011;29717;47.028;15.470;2022-12-16T01:18:56;88.20;;;56.83;;
44048;SDS011;29717;47.028;15.470;2022-12-16T01:21:23;85.87;;;56.27;;
44048;SDS011;29717;47.028;15.470;2022-12-16T01:23:50;87.63;;;58.97;;
44048;SDS011;29717;47.028;15.470;2022-12-16T01:26:17;89.20;;;57.73;;
44048;SDS011;29717;47.028;15.470;2022-12-16T01:28:46;86.40;;;56.23;;
44048;SDS011;29717;47.028;15.470;2022-12-16T01:31:15;91.40;;;56.70;;
44048;SDS011;29717;47.028;15.470;2022-12-16T01:33:42;87.93;;;55.33;;
44048;SDS011;29717;47.028;15.470;2022-12-16T01:36:09;88.33;;;56.33;;
44048;SDS011;29717;47.028;15.470;2022-12-16T01:38:36;81.30;;;52.23;;
44048;SDS011;29717;47.028;15.470;2022-12-16T01:41:03;82.90;;;54.43;;
44048;SDS011;29717;47.028;15.470;2022-12-16T01:43:31;87.13;;;55.97;;
44048;SDS011;29717;47.028;15.470;2022-12-16T01:45:59;90.77;;;56.03;;
44048;SDS011;29717;47.028;15.470;2022-12-16T01:48:34;83.87;;;54.00;;
44048;SDS011;29717;47.028;15.470;2022-12-16T01:51:02;83.33;;;55.63;;
44048;SDS011;29717;47.028;15.470;2022-12-16T01:53:30;82.90;;;53.30;;
44048;SDS011;29717;47.028;15.470;2022-12-16T01:55:57;83.43;;;54.63;;
44048;SDS011;29717;47.028;15.470;2022-12-16T01:58:27;85.63;;;54.13;;
44048;SDS011;29717;47.028;15.470;2022-12-16T02:00:57;83.53;;;54.03;;
44048;SDS011;29717;47.028;15.470;2022-12-16T02:03:26;82.97;;;53.17;;
44048;SDS011;29717;47.028;15.470;2022-12-16T02:08:46;80.30;;;52.43;;
44048;SDS011;29717;47.028;15.470;2022-12-16T02:14:42;86.40;;;55.03;;
44048;SDS011;29717;47.028;15.470;2022-12-16T02:17:16;92.17;;;54.70;;
44048;SDS011;29717;47.028;15.470;2022-12-16T02:22:59;86.60;;;55.70;;
44048;SDS011;29717;47.028;15.470;2022-12-16T02:28:47;84.57;;;55.13;;
44048;SDS011;29717;47.028;15.470;2022-12-16T02:34:26;83.70;;;54.83;;
44048;SDS011;29717;47.028;15.470;2022-12-16T02:37:04;87.37;;;56.37;;
44048;SDS011;29717;47.028;15.470;2022-12-16T02:39:49;84.37;;;55.23;;
44048;SDS011;29717;47.028;15.470;2022-12-16T02:42:25;92.97;;;56.57;;
44048;SDS011;29717;47.028;15.470;2022-12-16T02:44:56;83.47;;;52.57;;
44048;SDS011;29717;47.028;15.470;2022-12-16T02:47:33;82.00;;;54.93;;
44048;SDS011;29717;47.028;15.470;2022-12-16T02:50:21;79.17;;;53.57;;
44048;SDS011;29717;47.028;15.470;2022-12-16T02:53:00;80.70;;;55.17;;
44048;SDS011;29717;47.028;15.470;2022-12-16T02:55:33;90.53;;;55.67;;
44048;SDS011;29717;47.028;15.470;2022-12-16T02:58:05;82.63;;;53.43;;
44048;SDS011;29717;47.028;15.470;2022-12-16T03:00:50;86.90;;;56.83;;
44048;SDS011;29717;47.028;15.470;2022-12-16T03:03:31;83.87;;;52.83;;
44048;SDS011;29717;47.028;15.470;2022-12-16T03:06:14;78.63;;;53.20;;
44048;SDS011;29717;47.028;15.470;2022-12-16T03:09:00;80.87;;;53.07;;
44048;SDS011;29717;47.028;15.470;2022-12-16T03:11:50;85.77;;;55.73;;
44048;SDS011;29717;47.028;15.470;2022-12-16T03:17:12;90.30;;;56.13;;
44048;SDS011;29717;47.028;15.470;2022-12-16T03:19:44;80.67;;;54.03;;
44048;SDS011;29717;47.028;15.470;2022-12-16T03:25:16;83.90;;;55.00;;
44048;SDS011;29717;47.028;15.470;2022-12-16T03:27:49;81.40;;;53.80;;
44048;SDS011;29717;47.028;15.470;2022-12-16T03:30:31;85.73;;;55.17;;
44048;SDS011;29717;47.028;15.470;2022-12-16T03:33:14;85.80;;;55.97;;
44048;SDS011;29717;47.028;15.470;2022-12-16T03:36:06;88.00;;;56.73;;
44048;SDS011;29717;47.028;15.470;2022-12-16T03:39:02;89.17;;;58.27;;
44048;SDS011;29717;47.028;15.470;2022-12-16T03:44:54;86.67;;;56.77;;
44048;SDS011;29717;47.028;15.470;2022-12-16T03:47:33;87.93;;;56.80;;
44048;SDS011;29717;47.028;15.470;2022-12-16T03:50:04;85.43;;;55.40;;
44048;SDS011;29717;47.028;15.470;2022-12-16T03:52:43;82.90;;;55.93;;
44048;SDS011;29717;47.028;15.470;2022-12-16T03:55:26;91.47;;;57.40;;
44048;SDS011;29717;47.028;15.470;2022-12-16T03:58:00;90.53;;;58.50;;
44048;SDS011;29717;47.028;15.470;2022-12-16T04:00:56;92.50;;;57.13;;
44048;SDS011;29717;47.028;15.470;2022-12-16T04:03:55;89.57;;;56.37;;
44048;SDS011;29717;47.028;15.470;2022-12-16T04:06:46;90.47;;;58.30;;
44048;SDS011;29717;47.028;15.470;2022-12-16T04:12:48;86.50;;;56.23;;
44048;SDS011;29717;47.028;15.470;2022-12-16T04:15:32;91.20;;;57.73;;
44048;SDS011;29717;47.028;15.470;2022-12-16T04:18:19;85.60;;;56.33;;
44048;SDS011;29717;47.028;15.470;2022-12-16T04:21:07;90.90;;;57.73;;
44048;SDS011;29717;47.028;15.470;2022-12-16T04:23:52;91.20;;;59.10;;
44048;SDS011;29717;47.028;15.470;2022-12-16T04:26:41;90.17;;;58.17;;
44048;SDS011;29717;47.028;15.470;2022-12-16T04:32:49;88.77;;;57.87;;
44048;SDS011;29717;47.028;15.470;2022-12-16T04:35:44;94.33;;;58.90;;
44048;SDS011;29717;47.028;15.470;2022-12-16T04:38:31;87.87;;;56.17;;
44048;SDS011;29717;47.028;15.470;2022-12-16T04:41:25;93.83;;;58.90;;
44048;SDS011;29717;47.028;15.470;2022-12-16T04:44:10;90.13;;;58.37;;
44048;SDS011;29717;47.028;15.470;2022-12-16T04:47:06;86.50;;;57.07;;
44048;SDS011;29717;47.028;15.470;2022-12-16T04:50:01;86.73;;;56.00;;
44048;SDS011;29717;47.028;15.470;2022-12-16T04:52:46;87.20;;;57.83;;
44048;SDS011;29717;47.028;15.470;2022-12-16T04:55:33;94.73;;;58.13;;
44048;SDS011;29717;47.028;15.470;2022-12-16T04:58:17;91.73;;;58.37;;
44048;SDS011;29717;47.028;15.470;2022-12-16T05:01:01;86.50;;;55.93;;
44048;SDS011;29717;47.028;15.470;2022-12-16T05:03:45;85.07;;;55.90;;
44048;SDS011;29717;47.028;15.470;2022-12-16T05:06:29;86.07;;;56.47;;
44048;SDS011;29717;47.028;15.470;2022-12-16T05:09:15;82.30;;;54.23;;
44048;SDS011;29717;47.028;15.470;2022-12-16T05:12:05;90.73;;;58.17;;
44048;SDS011;29717;47.028;15.470;2022-12-16T05:14:49;86.90;;;57.10;;
44048;SDS011;29717;47.028;15.470;2022-12-16T05:17:39;88.60;;;58.40;;
44048;SDS011;29717;47.028;15.470;2022-12-16T05:20:28;88.03;;;57.67;;
44048;SDS011;29717;47.028;15.470;2022-12-16T05:23:12;92.10;;;57.03;;
44048;SDS011;29717;47.028;15.470;2022-12-16T05:25:58;93.33;;;58.67;;
44048;SDS011;29717;47.028;15.470;2022-12-16T05:28:41;87.40;;;59.53;;
44048;SDS011;29717;47.028;15.470;2022-12-16T05:31:26;97.03;;;62.67;;
44048;SDS011;29717;47.028;15.470;2022-12-16T05:34:13;103.50;;;61.93;;
44048;SDS011;29717;47.028;15.470;2022-12-16T05:37:00;95.63;;;61.23;;
44048;SDS011;29717;47.028;15.470;2022-12-16T05:39:44;101.83;;;63.03;;
44048;SDS011;29717;47.028;15.470;2022-12-16T05:42:32;100.87;;;62.70;;
44048;SDS011;29717;47.028;15.470;2022-12-16T05:45:22;100.67;;;64.27;;
44048;SDS011;29717;47.028;15.470;2022-12-16T05:48:06;111.00;;;66.63;;
44048;SDS011;29717;47.028;15.470;2022-12-16T05:50:51;98.73;;;61.93;;
44048;SDS011;29717;47.028;15.470;2022-12-16T05:53:35;96.30;;;64.13;;
44048;SDS011;29717;47.028;15.470;2022-12-16T05:56:19;100.53;;;62.67;;
44048;SDS011;29717;47.028;15.470;2022-12-16T05:59:07;105.40;;;64.67;;
44048;SDS011;29717;47.028;15.470;2022-12-16T06:01:51;100.80;;;63.27;;
44048;SDS011;29717;47.028;15.470;2022-12-16T06:04:36;104.57;;;62.20;;
44048;SDS011;29717;47.028;15.470;2022-12-16T06:07:20;108.30;;;63.63;;
44048;SDS011;29717;47.028;15.470;2022-12-16T06:10:04;98.53;;;60.23;;
44048;SDS011;29717;47.028;15.470;2022-12-16T06:12:52;105.40;;;64.10;;
44048;SDS011;29717;47.028;15.470;2022-12-16T06:15:37;96.87;;;59.70;;
44048;SDS011;29717;47.028;15.470;2022-12-16T06:18:21;101.27;;;62.97;;
44048;SDS011;29717;47.028;15.470;2022-12-16T06:21:06;86.33;;;54.07;;
44048;SDS011;29717;47.028;15.470;2022-12-16T06:23:50;94.70;;;58.70;;
44048;SDS011;29717;47.028;15.470;2022-12-16T06:26:34;92.87;;;60.93;;
44048;SDS011;29717;47.028;15.470;2022-12-16T06:29:33;98.77;;;61.57;;
44048;SDS011;29717;47.028;15.470;2022-12-16T06:32:18;192.47;;;102.50;;
44048;SDS011;29717;47.028;15.470;2022-12-16T06:35:03;241.20;;;123.50;;
44048;SDS011;29717;47.028;15.470;2022-12-16T06:37:47;258.80;;;132.47;;
44048;SDS011;29717;47.028;15.470;2022-12-16T06:40:49;167.80;;;93.97;;
44048;SDS011;29717;47.028;15.470;2022-12-16T06:43:34;112.77;;;65.97;;
44048;SDS011;29717;47.028;15.470;2022-12-16T06:46:26;106.13;;;64.67;;
44048;SDS011;29717;47.028;15.470;2022-12-16T06:49:17;94.73;;;59.87;;
44048;SDS011;29717;47.028;15.470;2022-12-16T06:52:04;96.63;;;62.10;;
44048;SDS011;29717;47.028;15.470;2022-12-16T06:54:48;96.20;;;63.30;;
44048;SDS011;29717;47.028;15.470;2022-12-16T06:57:35;105.63;;;64.87;;
44048;SDS011;29717;47.028;15.470;2022-12-16T07:00:22;92.53;;;61.10;;
44048;SDS011;29717;47.028;15.470;2022-12-16T07:03:07;92.37;;;60.17;;
44048;SDS011;29717;47.028;15.470;2022-12-16T07:05:53;88.20;;;59.00;;
44048;SDS011;29717;47.028;15.470;2022-12-16T07:08:40;89.60;;;57.03;;
44048;SDS011;29717;47.028;15.470;2022-12-16T07:11:24;100.37;;;63.20;;
44048;SDS011;29717;47.028;15.470;2022-12-16T07:14:08;92.03;;;61.23;;
44048;SDS011;29717;47.028;15.470;2022-12-16T07:16:53;52.50;;;32.70;;
44048;SDS011;29717;47.028;15.470;2022-12-16T07:19:37;80.50;;;48.27;;
44048;SDS011;29717;47.028;15.470;2022-12-16T07:22:28;65.60;;;44.50;;
44048;SDS011;29717;47.028;15.470;2022-12-16T07:25:17;62.00;;;43.57;;
44048;SDS011;29717;47.028;15.470;2022-12-16T07:28:05;67.97;;;47.80;;
44048;SDS011;29717;47.028;15.470;2022-12-16T07:30:49;68.73;;;46.23;;
44048;SDS011;29717;47.028;15.470;2022-12-16T07:33:35;69.27;;;45.77;;
44048;SDS011;29717;47.028;15.470;2022-12-16T07:36:24;66.40;;;44.70;;
44048;SDS011;29717;47.028;15.470;2022-12-16T07:39:20;68.50;;;46.30;;
44048;SDS011;29717;47.028;15.470;2022-12-16T07:42:05;74.00;;;49.67;;
44048;SDS011;29717;47.028;15.470;2022-12-16T07:44:49;70.37;;;47.87;;
44048;SDS011;29717;47.028;15.470;2022-12-16T07:47:35;70.47;;;46.67;;
44048;SDS011;29717;47.028;15.470;2022-12-16T07:50:20;73.07;;;47.00;;
44048;SDS011;29717;47.028;15.470;2022-12-16T07:53:03;69.57;;;47.40;;
44048;SDS011;29717;47.028;15.470;2022-12-16T07:55:49;69.73;;;48.27;;
44048;SDS011;29717;47.028;15.470;2022-12-16T07:58:34;72.23;;;47.33;;
44048;SDS011;29717;47.028;15.470;2022-12-16T08:01:18;66.80;;;46.37;;
44048;SDS011;29717;47.028;15.470;2022-12-16T08:04:02;71.67;;;48.30;;
44048;SDS011;29717;47.028;15.470;2022-12-16T08:06:46;69.03;;;46.43;;
44048;SDS011;29717;47.028;15.470;2022-12-16T08:09:30;71.40;;;48.23;;
44048;SDS011;29717;47.028;15.470;2022-12-16T08:12:16;74.43;;;48.40;;
44048;SDS011;29717;47.028;15.470;2022-12-16T08:15:00;71.47;;;47.77;;
44048;SDS011;29717;47.028;15.470;2022-12-16T08:17:46;72.10;;;48.80;;
44048;SDS011;29717;47.028;15.470;2022-12-16T08:20:30;67.90;;;48.13;;
44048;SDS011;29717;47.028;15.470;2022-12-16T08:23:14;73.37;;;49.60;;
44048;SDS011;29717;47.028;15.470;2022-12-16T08:25:59;71.13;;;49.97;;
44048;SDS011;29717;47.028;15.470;2022-12-16T08:28:56;79.50;;;52.83;;
44048;SDS011;29717;47.028;15.470;2022-12-16T08:31:40;79.27;;;50.90;;
44048;SDS011;29717;47.028;15.470;2022-12-16T08:34:24;74.70;;;50.23;;
44048;SDS011;29717;47.028;15.470;2022-12-16T08:37:11;78.03;;;50.03;;
44048;SDS011;29717;47.028;15.470;2022-12-16T08:39:55;78.80;;;52.03;;
44048;SDS011;29717;47.028;15.470;2022-12-16T08:42:39;76.77;;;51.73;;
44048;SDS011;29717;47.028;15.470;2022-12-16T08:45:25;83.50;;;54.63;;
44048;SDS011;29717;47.028;15.470;2022-12-16T08:48:09;80.13;;;54.37;;
44048;SDS011;29717;47.028;15.470;2022-12-16T08:50:54;86.10;;;53.73;;
44048;SDS011;29717;47.028;15.470;2022-12-16T08:53:38;81.63;;;53.53;;
44048;SDS011;29717;47.028;15.470;2022-12-16T08:56:22;81.13;;;54.30;;
44048;SDS011;29717;47.028;15.470;2022-12-16T08:59:07;111.03;;;67.37;;
44048;SDS011;29717;47.028;15.470;2022-12-16T09:01:52;109.13;;;64.23;;
44048;SDS011;29717;47.028;15.470;2022-12-16T09:04:36;81.83;;;53.57;;
44048;SDS011;29717;47.028;15.470;2022-12-16T09:07:20;90.30;;;55.43;;
44048;SDS011;29717;47.028;15.470;2022-12-16T09:10:05;79.03;;;51.10;;
44048;SDS011;29717;47.028;15.470;2022-12-16T09:12:49;75.90;;;51.87;;
44048;SDS011;29717;47.028;15.470;2022-12-16T09:15:33;79.60;;;52.20;;
44048;SDS011;29717;47.028;15.470;2022-12-16T09:18:19;70.43;;;49.10;;
44048;SDS011;29717;47.028;15.470;2022-12-16T09:21:03;72.67;;;48.70;;
44048;SDS011;29717;47.028;15.470;2022-12-16T09:23:48;72.73;;;49.00;;
44048;SDS011;29717;47.028;15.470;2022-12-16T09:26:32;77.87;;;50.53;;
44048;SDS011;29717;47.028;15.470;2022-12-16T09:29:18;79.67;;;49.90;;
44048;SDS011;29717;47.028;15.470;2022-12-16T09:32:02;75.43;;;50.13;;
44048;SDS011;29717;47.028;15.470;2022-12-16T09:34:48;76.10;;;49.90;;
44048;SDS011;29717;47.028;15.470;2022-12-16T09:37:32;71.33;;;49.33;;
44048;SDS011;29717;47.028;15.470;2022-12-16T09:40:16;72.40;;;47.77;;
44048;SDS011;29717;47.028;15.470;2022-12-16T09:43:12;73.57;;;48.47;;
44048;SDS011;29717;47.028;15.470;2022-12-16T09:46:03;69.70;;;49.93;;
44048;SDS011;29717;47.028;15.470;2022-12-16T09:48:53;69.77;;;49.20;;
44048;SDS011;29717;47.028;15.470;2022-12-16T09:51:41;71.13;;;47.80;;
44048;SDS011;29717;47.028;15.470;2022-12-16T09:54:27;73.73;;;49.27;;
44048;SDS011;29717;47.028;15.470;2022-12-16T09:57:14;70.27;;;48.40;;
44048;SDS011;29717;47.028;15.470;2022-12-16T09:59:59;71.93;;;50.23;;
44048;SDS011;29717;47.028;15.470;2022-12-16T10:02:44;71.10;;;48.97;;
44048;SDS011;29717;47.028;15.470;2022-12-16T10:05:32;75.63;;;51.03;;
44048;SDS011;29717;47.028;15.470;2022-12-16T10:08:21;80.57;;;53.37;;
44048;SDS011;29717;47.028;15.470;2022-12-16T10:11:10;78.70;;;52.87;;
44048;SDS011;29717;47.028;15.470;2022-12-16T10:13:57;79.93;;;52.70;;
44048;SDS011;29717;47.028;15.470;2022-12-16T10:16:44;72.07;;;51.37;;
44048;SDS011;29717;47.028;15.470;2022-12-16T10:19:34;68.97;;;47.00;;
44048;SDS011;29717;47.028;15.470;2022-12-16T10:22:21;77.97;;;53.83;;
44048;SDS011;29717;47.028;15.470;2022-12-16T10:25:11;79.87;;;52.60;;
44048;SDS011;29717;47.028;15.470;2022-12-16T10:27:57;76.47;;;51.50;;
44048;SDS011;29717;47.028;15.470;2022-12-16T10:30:43;79.23;;;53.07;;
44048;SDS011;29717;47.028;15.470;2022-12-16T10:33:28;74.47;;;50.60;;
44048;SDS011;29717;47.028;15.470;2022-12-16T10:36:13;78.23;;;52.37;;
44048;SDS011;29717;47.028;15.470;2022-12-16T10:38:59;76.73;;;52.00;;
44048;SDS011;29717;47.028;15.470;2022-12-16T10:41:47;79.10;;;53.70;;
44048;SDS011;29717;47.028;15.470;2022-12-16T10:44:32;81.67;;;53.83;;
44048;SDS011;29717;47.028;15.470;2022-12-16T10:47:18;77.73;;;53.10;;
44048;SDS011;29717;47.028;15.470;2022-12-16T10:50:03;77.17;;;52.23;;
44048;SDS011;29717;47.028;15.470;2022-12-16T10:52:49;77.57;;;52.77;;
44048;SDS011;29717;47.028;15.470;2022-12-16T10:55:38;78.40;;;53.77;;
44048;SDS011;29717;47.028;15.470;2022-12-16T10:58:28;79.57;;;52.97;;
44048;SDS011;29717;47.028;15.470;2022-12-16T11:02:03;79.30;;;52.00;;
44048;SDS011;29717;47.028;15.470;2022-12-16T11:04:30;77.37;;;52.73;;
44048;SDS011;29717;47.028;15.470;2022-12-16T11:07:22;85.33;;;53.47;;
44048;SDS011;29717;47.028;15.470;2022-12-16T11:10:30;74.07;;;51.17;;
44048;SDS011;29717;47.028;15.470;2022-12-16T11:13:25;81.50;;;53.57;;
44048;SDS011;29717;47.028;15.470;2022-12-16T11:16:23;81.77;;;54.43;;
44048;SDS011;29717;47.028;15.470;2022-12-16T11:19:17;78.93;;;51.47;;
44048;SDS011;29717;47.028;15.470;2022-12-16T11:22:04;81.67;;;53.93;;
44048;SDS011;29717;47.028;15.470;2022-12-16T11:24:50;79.17;;;54.07;;
44048;SDS011;29717;47.028;15.470;2022-12-16T11:27:46;91.67;;;55.27;;
44048;SDS011;29717;47.028;15.470;2022-12-16T11:30:31;88.70;;;57.73;;
44048;SDS011;29717;47.028;15.470;2022-12-16T11:33:18;85.93;;;55.57;;
44048;SDS011;29717;47.028;15.470;2022-12-16T11:36:05;82.80;;;53.47;;
44048;SDS011;29717;47.028;15.470;2022-12-16T11:38:50;80.80;;;53.70;;
44048;SDS011;29717;47.028;15.470;2022-12-16T11:41:35;86.97;;;54.80;;
44048;SDS011;29717;47.028;15.470;2022-12-16T11:44:20;83.30;;;53.17;;
44048;SDS011;29717;47.028;15.470;2022-12-16T11:47:07;77.50;;;51.07;;
44048;SDS011;29717;47.028;15.470;2022-12-16T11:49:57;87.07;;;53.73;;
44048;SDS011;29717;47.028;15.470;2022-12-16T11:52:57;84.27;;;54.00;;
44048;SDS011;29717;47.028;15.470;2022-12-16T11:55:43;84.17;;;52.13;;
44048;SDS011;29717;47.028;15.470;2022-12-16T11:58:30;80.30;;;52.77;;
44048;SDS011;29717;47.028;15.470;2022-12-16T12:01:17;77.67;;;51.20;;
44048;SDS011;29717;47.028;15.470;2022-12-16T12:04:02;79.27;;;53.47;;
44048;SDS011;29717;47.028;15.470;2022-12-16T12:07:00;79.10;;;51.03;;
44048;SDS011;29717;47.028;15.470;2022-12-16T12:09:49;73.97;;;49.63;;
44048;SDS011;29717;47.028;15.470;2022-12-16T12:12:36;89.47;;;55.33;;
44048;SDS011;29717;47.028;15.470;2022-12-16T12:15:23;79.23;;;50.20;;
44048;SDS011;29717;47.028;15.470;2022-12-16T12:18:12;76.67;;;49.00;;
44048;SDS011;29717;47.028;15.470;2022-12-16T12:20:59;73.00;;;49.13;;
44048;SDS011;29717;47.028;15.470;2022-12-16T12:23:49;71.67;;;47.50;;
44048;SDS011;29717;47.028;15.470;2022-12-16T12:26:37;70.10;;;48.03;;
44048;SDS011;29717;47.028;15.470;2022-12-16T12:29:28;75.07;;;49.27;;
44048;SDS011;29717;47.028;15.470;2022-12-16T12:32:17;69.90;;;47.60;;
44048;SDS011;29717;47.028;15.470;2022-12-16T12:35:04;75.50;;;47.73;;
44048;SDS011;29717;47.028;15.470;2022-12-16T12:37:55;65.43;;;44.47;;
44048;SDS011;29717;47.028;15.470;2022-12-16T12:40:43;71.40;;;45.40;;
44048;SDS011;29717;47.028;15.470;2022-12-16T12:43:33;68.73;;;45.57;;
44048;SDS011;29717;47.028;15.470;2022-12-16T12:46:22;66.13;;;44.43;;
44048;SDS011;29717;47.028;15.470;2022-12-16T12:49:10;64.80;;;43.27;;
44048;SDS011;29717;47.028;15.470;2022-12-16T12:51:58;62.93;;;40.73;;
44048;SDS011;29717;47.028;15.470;2022-12-16T12:55:07;65.20;;;39.17;;
44048;SDS011;29717;47.028;15.470;2022-12-16T12:57:54;59.57;;;37.90;;
44048;SDS011;29717;47.028;15.470;2022-12-16T13:00:40;57.43;;;37.87;;
44048;SDS011;29717;47.028;15.470;2022-12-16T13:03:27;62.10;;;39.40;;
44048;SDS011;29717;47.028;15.470;2022-12-16T13:06:14;60.50;;;38.00;;
44048;SDS011;29717;47.028;15.470;2022-12-16T13:08:59;57.77;;;38.33;;
44048;SDS011;29717;47.028;15.470;2022-12-16T13:14:54;61.63;;;37.30;;
44048;SDS011;29717;47.028;15.470;2022-12-16T13:20:50;61.50;;;39.17;;
44048;SDS011;29717;47.028;15.470;2022-12-16T13:23:37;64.13;;;40.70;;
44048;SDS011;29717;47.028;15.470;2022-12-16T13:26:22;62.37;;;40.10;;
44048;SDS011;29717;47.028;15.470;2022-12-16T13:29:12;62.40;;;39.83;;
44048;SDS011;29717;47.028;15.470;2022-12-16T13:32:00;62.50;;;39.33;;
44048;SDS011;29717;47.028;15.470;2022-12-16T13:34:45;61.00;;;38.30;;
44048;SDS011;29717;47.028;15.470;2022-12-16T13:37:29;59.70;;;37.27;;
44048;SDS011;29717;47.028;15.470;2022-12-16T13:40:28;61.93;;;40.73;;
44048;SDS011;29717;47.028;15.470;2022-12-16T13:46:39;67.13;;;41.70;;
44048;SDS011;29717;47.028;15.470;2022-12-16T13:49:45;61.00;;;38.70;;
44048;SDS011;29717;47.028;15.470;2022-12-16T13:52:39;68.43;;;43.43;;
44048;SDS011;29717;47.028;15.470;2022-12-16T13:55:26;67.23;;;41.77;;
44048;SDS011;29717;47.028;15.470;2022-12-16T13:58:14;73.13;;;42.77;;
44048;SDS011;29717;47.028;15.470;2022-12-16T14:01:02;69.67;;;43.17;;
44048;SDS011;29717;47.028;15.470;2022-12-16T14:03:48;72.83;;;43.30;;
44048;SDS011;29717;47.028;15.470;2022-12-16T14:06:34;72.30;;;44.20;;
44048;SDS011;29717;47.028;15.470;2022-12-16T14:09:25;74.30;;;42.03;;
44048;SDS011;29717;47.028;15.470;2022-12-16T14:15:23;73.67;;;43.77;;
44048;SDS011;29717;47.028;15.470;2022-12-16T14:18:10;77.87;;;46.17;;
44048;SDS011;29717;47.028;15.470;2022-12-16T14:21:05;74.27;;;45.33;;
44048;SDS011;29717;47.028;15.470;2022-12-16T14:24:01;76.07;;;45.00;;
44048;SDS011;29717;47.028;15.470;2022-12-16T14:26:48;81.77;;;46.80;;
44048;SDS011;29717;47.028;15.470;2022-12-16T14:29:32;80.53;;;47.10;;
44048;SDS011;29717;47.028;15.470;2022-12-16T14:32:24;80.53;;;48.10;;
44048;SDS011;29717;47.028;15.470;2022-12-16T14:35:10;81.77;;;45.87;;
44048;SDS011;29717;47.028;15.470;2022-12-16T14:37:55;73.37;;;44.03;;
44048;SDS011;29717;47.028;15.470;2022-12-16T14:40:43;77.27;;;45.63;;
44048;SDS011;29717;47.028;15.470;2022-12-16T14:43:33;80.57;;;45.57;;
44048;SDS011;29717;47.028;15.470;2022-12-16T14:46:23;80.03;;;44.17;;
44048;SDS011;29717;47.028;15.470;2022-12-16T14:49:14;84.10;;;47.43;;
44048;SDS011;29717;47.028;15.470;2022-12-16T14:52:08;86.97;;;50.93;;
44048;SDS011;29717;47.028;15.470;2022-12-16T14:54:54;80.00;;;48.57;;
44048;SDS011;29717;47.028;15.470;2022-12-16T14:57:40;87.57;;;50.40;;
44048;SDS011;29717;47.028;15.470;2022-12-16T15:00:24;90.17;;;52.90;;
44048;SDS011;29717;47.028;15.470;2022-12-16T15:03:10;94.03;;;52.10;;
44048;SDS011;29717;47.028;15.470;2022-12-16T15:05:56;90.90;;;50.83;;
44048;SDS011;29717;47.028;15.470;2022-12-16T15:08:43;92.73;;;51.27;;
44048;SDS011;29717;47.028;15.470;2022-12-16T15:11:30;90.27;;;49.13;;
44048;SDS011;29717;47.028;15.470;2022-12-16T15:14:17;87.70;;;50.00;;
44048;SDS011;29717;47.028;15.470;2022-12-16T15:17:04;80.33;;;47.73;;
44048;SDS011;29717;47.028;15.470;2022-12-16T15:20:03;83.67;;;47.20;;
44048;SDS011;29717;47.028;15.470;2022-12-16T15:22:48;83.50;;;46.97;;
44048;SDS011;29717;47.028;15.470;2022-12-16T15:25:32;80.20;;;45.97;;
44048;SDS011;29717;47.028;15.470;2022-12-16T15:28:24;82.63;;;46.17;;
44048;SDS011;29717;47.028;15.470;2022-12-16T15:31:13;92.20;;;53.80;;
44048;SDS011;29717;47.028;15.470;2022-12-16T15:36:57;85.97;;;49.20;;
44048;SDS011;29717;47.028;15.470;2022-12-16T15:39:41;89.53;;;51.20;;
44048;SDS011;29717;47.028;15.470;2022-12-16T15:42:26;102.93;;;53.90;;
44048;SDS011;29717;47.028;15.470;2022-12-16T15:45:16;86.83;;;48.37;;
44048;SDS011;29717;47.028;15.470;2022-12-16T15:48:07;84.53;;;45.80;;
44048;SDS011;29717;47.028;15.470;2022-12-16T15:50:54;83.07;;;47.13;;
44048;SDS011;29717;47.028;15.470;2022-12-16T15:53:59;85.77;;;47.93;;
44048;SDS011;29717;47.028;15.470;2022-12-16T15:56:44;94.57;;;51.03;;
44048;SDS011;29717;47.028;15.470;2022-12-16T15:59:30;94.43;;;51.03;;
44048;SDS011;29717;47.028;15.470;2022-12-16T16:02:15;85.37;;;48.20;;
44048;SDS011;29717;47.028;15.470;2022-12-16T16:05:06;80.70;;;47.47;;
44048;SDS011;29717;47.028;15.470;2022-12-16T16:07:53;86.33;;;49.43;;
44048;SDS011;29717;47.028;15.470;2022-12-16T16:10:37;78.50;;;43.77;;
44048;SDS011;29717;47.028;15.470;2022-12-16T16:13:24;80.17;;;46.40;;
44048;SDS011;29717;47.028;15.470;2022-12-16T16:16:22;77.73;;;43.77;;
44048;SDS011;29717;47.028;15.470;2022-12-16T16:19:08;76.63;;;46.33;;
44048;SDS011;29717;47.028;15.470;2022-12-16T16:21:56;84.87;;;47.10;;
44048;SDS011;29717;47.028;15.470;2022-12-16T16:24:40;83.27;;;49.73;;
44048;SDS011;29717;47.028;15.470;2022-12-16T16:27:24;83.57;;;47.67;;
44048;SDS011;29717;47.028;15.470;2022-12-16T16:30:12;81.03;;;45.17;;